This is the latest recevied weather packets stored in our database for station/object OK4PZ-5. If no packets are shown the sender has not sent any weather packets the latest 10 day(s).
| Time | Temp. | Humidity | Pressure | Rain* | Wind** | Luminosity | Snow |
|---|---|---|---|---|---|---|---|
| 1777547702 | 12.22° C | 31% | 1031 hPa | 0 mm | - | - | - |
| 1777546803 | 11.67° C | 30% | 1031 hPa | 0 mm | - | - | - |
| 1777545902 | 10.56° C | 31% | 1031 hPa | 0 mm | - | - | - |
| 1777545003 | 10.56° C | 32% | 1031 hPa | 0 mm | - | - | - |
| 1777544102 | 10° C | 30% | 1031 hPa | 0 mm | - | - | - |
| 1777543202 | 10° C | 33% | 1031 hPa | 0 mm | - | - | - |
| 1777542303 | 10° C | 31% | 1031 hPa | 0 mm | - | - | - |
| 1777541402 | 8.89° C | 34% | 1031 hPa | 0 mm | - | - | - |
| 1777540502 | 9.44° C | 33% | 1031 hPa | 0 mm | - | - | - |
| 1777539603 | 8.89° C | 36% | 1031 hPa | 0 mm | - | - | - |
| 1777538702 | 8.33° C | 36% | 1031 hPa | 0 mm | - | - | - |
| 1777537802 | 8.33° C | 35% | 1032 hPa | 0 mm | - | - | - |
| 1777536903 | 8.33° C | 37% | 1032 hPa | 0 mm | - | - | - |
| 1777536003 | 7.78° C | 39% | 1032 hPa | 0 mm | - | - | - |
| 1777535102 | 7.22° C | 39% | 1032 hPa | 0 mm | - | - | - |
| 1777534203 | 6.11° C | 41% | 1032 hPa | 0 mm | - | - | - |
| 1777533303 | 7.22° C | 40% | 1032 hPa | 0 mm | - | - | - |
| 1777532402 | 5.56° C | 46% | 1032 hPa | 0 mm | - | - | - |
| 1777531502 | 5.56° C | 46% | 1032 hPa | 0 mm | - | - | - |
| 1777530602 | 4.44° C | 54% | 1032 hPa | 0 mm | - | - | - |
| 1777529702 | 3.33° C | 56% | 1032 hPa | 0 mm | - | - | - |
| 1777528802 | 2.22° C | 60% | 1032 hPa | 0 mm | - | - | - |
| 1777527902 | 2.22° C | 63% | 1032 hPa | 0 mm | - | - | - |
| 1777527002 | 0° C | 71% | 1032 hPa | 0 mm | - | - | - |
| 1777526102 | -1.67° C | 78% | 1032 hPa | 0 mm | - | - | - |
* Rain latest hour (hover to see other rain measurements)
** Current wind speed in m/s (hover to see current wind gust speed)